createdAt,value
2018-07-24T00:00:59.047Z,1007.75
2018-07-24T00:02:51.967Z,1007.77
2018-07-24T00:03:51.835Z,1007.76
2018-07-24T00:05:44.845Z,1007.72
2018-07-24T00:06:44.790Z,1007.72
2018-07-24T00:08:37.785Z,1007.75
2018-07-24T00:09:37.742Z,1007.72
2018-07-24T00:11:31.608Z,1007.72
2018-07-24T00:12:31.562Z,1007.72
2018-07-24T00:14:24.560Z,1007.73
2018-07-24T00:15:24.523Z,1007.73
2018-07-24T00:17:17.557Z,1007.70
2018-07-24T00:18:17.493Z,1007.68
2018-07-24T00:20:10.642Z,1007.69
2018-07-24T00:21:10.611Z,1007.70
2018-07-24T00:23:03.643Z,1007.69
2018-07-24T00:24:03.601Z,1007.68
2018-07-24T00:25:56.613Z,1007.69
2018-07-24T00:26:56.583Z,1007.65
2018-07-24T00:28:49.586Z,1007.68
2018-07-24T00:29:49.528Z,1007.65
2018-07-24T00:31:42.510Z,1007.60
2018-07-24T00:32:42.479Z,1007.63
2018-07-24T00:34:35.639Z,1007.62
2018-07-24T00:35:35.592Z,1007.60
2018-07-24T00:37:28.604Z,1007.59
2018-07-24T00:38:28.549Z,1007.56
2018-07-24T00:40:21.535Z,1007.52
2018-07-24T00:41:21.498Z,1007.54
2018-07-24T00:43:14.483Z,1007.57
2018-07-24T00:44:14.391Z,1007.58
2018-07-24T00:46:07.208Z,1007.58
2018-07-24T00:47:07.169Z,1007.57
2018-07-24T00:49:00.217Z,1007.49
2018-07-24T00:50:00.157Z,1007.46
2018-07-24T00:51:53.202Z,1007.45
2018-07-24T00:52:53.173Z,1007.44
2018-07-24T00:54:46.193Z,1007.44
2018-07-24T00:55:46.132Z,1007.43
2018-07-24T00:57:39.142Z,1007.41
2018-07-24T00:58:39.089Z,1007.44
2018-07-24T01:00:32.290Z,1007.43
2018-07-24T01:01:32.200Z,1007.45
2018-07-24T01:03:25.207Z,1007.43
2018-07-24T01:04:25.182Z,1007.44
2018-07-24T01:06:18.159Z,1007.40
2018-07-24T01:07:18.120Z,1007.41
2018-07-24T01:09:10.974Z,1007.41
2018-07-24T01:10:10.905Z,1007.42
2018-07-24T01:12:03.891Z,1007.38
2018-07-24T01:13:03.864Z,1007.39
2018-07-24T01:14:56.860Z,1007.40
2018-07-24T01:15:56.811Z,1007.39
2018-07-24T01:17:50.000Z,1007.39
2018-07-24T01:18:49.900Z,1007.38
2018-07-24T01:20:42.907Z,1007.36
2018-07-24T01:21:42.849Z,1007.35
2018-07-24T01:23:35.847Z,1007.34
2018-07-24T01:24:35.813Z,1007.31
2018-07-24T01:26:28.830Z,1007.33
2018-07-24T01:27:28.660Z,1007.29
2018-07-24T01:29:21.689Z,1007.29
2018-07-24T01:30:21.654Z,1007.28
2018-07-24T01:32:14.485Z,1007.29
2018-07-24T01:33:14.444Z,1007.29
2018-07-24T01:35:07.743Z,1007.25
2018-07-24T01:36:07.535Z,1007.24
2018-07-24T01:38:00.534Z,1007.24
2018-07-24T01:39:00.486Z,1007.22
2018-07-24T01:40:53.492Z,1007.18
2018-07-24T01:41:53.449Z,1007.24
2018-07-24T01:43:46.584Z,1007.21
2018-07-24T01:44:46.535Z,1007.23
2018-07-24T01:46:39.556Z,1007.24
2018-07-24T01:47:39.502Z,1007.26
2018-07-24T01:49:32.467Z,1007.20
2018-07-24T01:50:32.445Z,1007.24
2018-07-24T01:52:25.467Z,1007.25
2018-07-24T01:53:25.416Z,1007.27
2018-07-24T01:55:18.404Z,1007.23
2018-07-24T01:56:18.419Z,1007.23
2018-07-24T01:58:11.596Z,1007.23
2018-07-24T01:59:11.495Z,1007.19
2018-07-24T02:01:04.514Z,1007.20
2018-07-24T02:02:04.446Z,1007.19
2018-07-24T02:03:57.706Z,1007.15
2018-07-24T02:04:57.671Z,1007.18
2018-07-24T02:06:50.677Z,1007.14
2018-07-24T02:07:50.626Z,1007.19
2018-07-24T02:09:43.605Z,1007.16
2018-07-24T02:10:43.581Z,1007.16
2018-07-24T02:12:36.784Z,1007.21
2018-07-24T02:13:36.682Z,1007.19
2018-07-24T02:15:29.656Z,1007.18
2018-07-24T02:16:29.618Z,1007.18
2018-07-24T02:18:22.627Z,1007.16
2018-07-24T02:19:22.571Z,1007.14
2018-07-24T02:21:15.620Z,1007.14
2018-07-24T02:22:15.581Z,1007.14
2018-07-24T02:24:08.675Z,1007.13
2018-07-24T02:25:08.626Z,1007.17
2018-07-24T02:27:01.769Z,1007.17
2018-07-24T02:28:01.731Z,1007.13
2018-07-24T02:29:54.743Z,1007.13
2018-07-24T02:30:54.698Z,1007.15
2018-07-24T02:32:48.701Z,1007.13
2018-07-24T02:33:48.654Z,1007.09
2018-07-24T02:35:41.479Z,1007.12
2018-07-24T02:36:41.426Z,1007.16
2018-07-24T02:38:34.272Z,1007.14
2018-07-24T02:39:34.227Z,1007.16
2018-07-24T02:41:27.044Z,1007.11
2018-07-24T02:42:26.991Z,1007.12
2018-07-24T02:44:20.048Z,1007.13
2018-07-24T02:45:19.992Z,1007.12
2018-07-24T02:47:13.132Z,1007.09
2018-07-24T02:48:13.107Z,1007.12
2018-07-24T02:50:05.930Z,1007.13
2018-07-24T02:51:05.888Z,1007.14
2018-07-24T02:52:59.188Z,1007.12
2018-07-24T02:53:59.169Z,1007.12
2018-07-24T02:55:52.322Z,1007.12
2018-07-24T02:56:52.272Z,1007.08
2018-07-24T02:58:45.103Z,1007.10
2018-07-24T02:59:45.065Z,1007.10
2018-07-24T03:01:38.238Z,1007.12
2018-07-24T03:02:38.073Z,1007.15
2018-07-24T03:04:31.073Z,1007.16
2018-07-24T03:05:31.020Z,1007.15
2018-07-24T03:07:24.022Z,1007.10
2018-07-24T03:08:23.964Z,1007.11
2018-07-24T03:10:16.839Z,1007.09
2018-07-24T03:11:16.788Z,1007.05
2018-07-24T03:13:09.770Z,1007.06
2018-07-24T03:14:09.734Z,1007.08
2018-07-24T03:16:02.768Z,1007.03
2018-07-24T03:17:02.699Z,1007.04
2018-07-24T03:18:56.005Z,1007.04
2018-07-24T03:19:55.970Z,1007.07
2018-07-24T03:21:48.974Z,1007.07
2018-07-24T03:22:48.935Z,1007.07
2018-07-24T03:24:42.109Z,1007.05
2018-07-24T03:25:42.039Z,1007.04
2018-07-24T03:27:35.059Z,1007.02
2018-07-24T03:28:34.989Z,1007.04
2018-07-24T03:30:27.979Z,1007.02
2018-07-24T03:31:27.943Z,1007.02
2018-07-24T03:33:20.766Z,1006.99
2018-07-24T03:34:20.737Z,1007.05
2018-07-24T03:36:13.711Z,1007.06
2018-07-24T03:37:13.680Z,1007.08
2018-07-24T03:39:06.505Z,1006.98
2018-07-24T03:40:06.445Z,1007.02
2018-07-24T03:41:59.459Z,1007.02
2018-07-24T03:42:59.437Z,1007.03
2018-07-24T03:44:52.560Z,1007.05
2018-07-24T03:45:52.465Z,1007.00
2018-07-24T03:47:45.445Z,1007.03
2018-07-24T03:48:45.420Z,1007.05
2018-07-24T03:50:38.414Z,1007.05
2018-07-24T03:51:38.362Z,1007.06
2018-07-24T03:53:31.219Z,1007.05
2018-07-24T03:54:31.154Z,1007.07
2018-07-24T03:56:24.160Z,1007.07
2018-07-24T03:57:24.110Z,1007.06
2018-07-24T03:59:17.112Z,1007.06
2018-07-24T04:00:17.075Z,1007.06
2018-07-24T04:02:09.898Z,1007.10
2018-07-24T04:03:09.848Z,1007.09
2018-07-24T04:05:02.887Z,1007.05
2018-07-24T04:06:02.821Z,1007.09
2018-07-24T04:07:55.632Z,1007.08
2018-07-24T04:08:55.596Z,1007.10
2018-07-24T04:10:48.606Z,1007.11
2018-07-24T04:11:48.561Z,1007.09
2018-07-24T04:13:41.717Z,1007.10
2018-07-24T04:14:41.665Z,1007.05
2018-07-24T04:16:34.671Z,1007.08
2018-07-24T04:17:34.621Z,1007.08
2018-07-24T04:19:27.642Z,1007.10
2018-07-24T04:20:27.589Z,1007.13
2018-07-24T04:22:20.400Z,1007.10
2018-07-24T04:23:20.377Z,1007.12
2018-07-24T04:25:13.692Z,1007.09
2018-07-24T04:26:13.644Z,1007.11
2018-07-24T04:28:06.788Z,1007.13
2018-07-24T04:29:06.756Z,1007.12
2018-07-24T04:30:59.807Z,1007.09
2018-07-24T04:31:59.712Z,1007.12
2018-07-24T04:33:52.697Z,1007.06
2018-07-24T04:34:52.666Z,1007.03
2018-07-24T04:36:45.667Z,1007.05
2018-07-24T04:37:45.622Z,1007.03
2018-07-24T04:39:38.607Z,1007.03
2018-07-24T04:40:38.576Z,1007.04
2018-07-24T04:42:31.759Z,1007.03
2018-07-24T04:43:31.701Z,1007.04
2018-07-24T04:45:24.751Z,1007.03
2018-07-24T04:46:24.688Z,1007.03
2018-07-24T04:48:17.737Z,1007.02
2018-07-24T04:49:17.676Z,1007.01
2018-07-24T04:51:10.543Z,1006.99
2018-07-24T04:52:10.497Z,1007.00
2018-07-24T04:54:03.489Z,1007.01
2018-07-24T04:55:03.460Z,1006.99
2018-07-24T04:56:56.461Z,1007.04
2018-07-24T04:57:56.404Z,1007.02
2018-07-24T04:59:49.564Z,1007.03
2018-07-24T05:00:49.519Z,1007.03
2018-07-24T05:02:42.655Z,1007.01
2018-07-24T05:03:42.509Z,1007.05
2018-07-24T05:05:35.505Z,1007.03
2018-07-24T05:06:35.462Z,1007.09
2018-07-24T05:08:28.494Z,1007.05
2018-07-24T05:09:28.467Z,1007.06
2018-07-24T05:11:21.268Z,1007.07
2018-07-24T05:12:21.230Z,1007.05
2018-07-24T05:14:14.233Z,1007.10
2018-07-24T05:15:14.185Z,1007.10
2018-07-24T05:17:07.018Z,1007.12
2018-07-24T05:18:06.968Z,1007.15
2018-07-24T05:20:00.109Z,1007.15
2018-07-24T05:21:00.069Z,1007.11
2018-07-24T05:22:53.057Z,1007.14
2018-07-24T05:23:53.024Z,1007.10
2018-07-24T05:25:46.216Z,1007.10
2018-07-24T05:26:46.128Z,1007.14
2018-07-24T05:28:38.954Z,1007.13
2018-07-24T05:29:38.906Z,1007.13
2018-07-24T05:31:31.893Z,1007.09
2018-07-24T05:32:31.852Z,1007.10
2018-07-24T05:34:25.043Z,1007.12
2018-07-24T05:35:24.978Z,1007.12
2018-07-24T05:37:17.967Z,1007.13
2018-07-24T05:38:17.960Z,1007.16
2018-07-24T05:40:10.940Z,1007.13
2018-07-24T05:41:10.890Z,1007.14
2018-07-24T05:43:03.849Z,1007.16
2018-07-24T05:44:03.698Z,1007.15
2018-07-24T05:45:56.692Z,1007.17
2018-07-24T05:46:56.662Z,1007.14
2018-07-24T05:48:49.707Z,1007.14
2018-07-24T05:49:49.610Z,1007.13
2018-07-24T05:51:42.433Z,1007.17
2018-07-24T05:52:42.404Z,1007.12
2018-07-24T05:54:35.416Z,1007.13
2018-07-24T05:55:35.369Z,1007.13
2018-07-24T05:57:28.417Z,1007.15
2018-07-24T05:58:28.376Z,1007.12
2018-07-24T06:00:21.670Z,1007.16
2018-07-24T06:01:21.632Z,1007.19
2018-07-24T06:03:14.624Z,1007.19
2018-07-24T06:04:14.590Z,1007.18
2018-07-24T06:06:07.785Z,1007.15
2018-07-24T06:07:07.688Z,1007.16
2018-07-24T06:09:00.705Z,1007.16
2018-07-24T06:10:00.645Z,1007.17
2018-07-24T06:11:53.649Z,1007.14
2018-07-24T06:12:53.611Z,1007.16
2018-07-24T06:14:46.705Z,1007.13
2018-07-24T06:15:46.635Z,1007.14
2018-07-24T06:17:39.610Z,1007.16
2018-07-24T06:18:39.593Z,1007.18
2018-07-24T06:20:32.570Z,1007.18
2018-07-24T06:21:32.543Z,1007.21
2018-07-24T06:23:25.401Z,1007.19
2018-07-24T06:24:25.321Z,1007.21
2018-07-24T06:26:18.335Z,1007.24
2018-07-24T06:27:18.279Z,1007.20
2018-07-24T06:29:11.291Z,1007.26
2018-07-24T06:30:11.240Z,1007.24
2018-07-24T06:32:04.086Z,1007.24
2018-07-24T06:33:04.048Z,1007.23
2018-07-24T06:34:57.218Z,1007.22
2018-07-24T06:35:57.133Z,1007.25
2018-07-24T06:37:50.122Z,1007.26
2018-07-24T06:38:50.081Z,1007.21
2018-07-24T06:40:43.111Z,1007.20
2018-07-24T06:41:43.067Z,1007.21
2018-07-24T06:43:36.065Z,1007.20
2018-07-24T06:44:36.070Z,1007.21
2018-07-24T06:46:29.010Z,1007.19
2018-07-24T06:47:28.985Z,1007.20
2018-07-24T06:49:21.841Z,1007.19
2018-07-24T06:50:21.775Z,1007.20
2018-07-24T06:52:15.809Z,1007.20
2018-07-24T06:53:15.756Z,1007.23
2018-07-24T06:55:08.794Z,1007.20
2018-07-24T06:56:08.754Z,1007.22
2018-07-24T06:58:01.910Z,1007.23
2018-07-24T06:59:01.858Z,1007.27
2018-07-24T07:00:54.892Z,1007.20
2018-07-24T07:01:54.867Z,1007.22
2018-07-24T07:03:48.153Z,1007.24
2018-07-24T07:04:47.975Z,1007.18
2018-07-24T07:06:40.960Z,1007.16
2018-07-24T07:07:41.003Z,1007.19
2018-07-24T07:09:33.979Z,1007.14
2018-07-24T07:10:33.926Z,1007.14
2018-07-24T07:12:26.768Z,1007.15
2018-07-24T07:13:26.777Z,1007.13
2018-07-24T07:15:19.556Z,1007.12
2018-07-24T07:16:19.539Z,1007.11
2018-07-24T07:18:12.337Z,1007.08
2018-07-24T07:19:12.302Z,1007.08
2018-07-24T07:21:05.292Z,1007.04
2018-07-24T07:22:05.299Z,1007.09
2018-07-24T07:23:58.506Z,1007.12
2018-07-24T07:24:58.362Z,1007.11
2018-07-24T07:26:51.369Z,1007.12
2018-07-24T07:27:51.321Z,1007.14
2018-07-24T07:29:44.161Z,1007.12
2018-07-24T07:30:44.110Z,1007.11
2018-07-24T07:32:37.328Z,1007.06
2018-07-24T07:33:37.217Z,1007.07
2018-07-24T07:35:30.276Z,1007.06
2018-07-24T07:36:30.223Z,1007.08
2018-07-24T07:38:23.241Z,1007.06
2018-07-24T07:39:23.212Z,1007.05
2018-07-24T07:41:16.213Z,1007.04
2018-07-24T07:42:16.182Z,1007.04
2018-07-24T07:44:09.203Z,1007.03
2018-07-24T07:45:09.204Z,1007.05
2018-07-24T07:47:02.392Z,1007.04
2018-07-24T07:48:02.244Z,1007.08
2018-07-24T07:49:55.263Z,1007.06
2018-07-24T07:50:55.202Z,1007.07
2018-07-24T07:52:48.015Z,1007.06
2018-07-24T07:53:47.996Z,1007.04
2018-07-24T07:55:41.204Z,1007.03
2018-07-24T07:56:41.143Z,1007.04
2018-07-24T07:58:34.208Z,1007.02
2018-07-24T07:59:34.183Z,1007.02
2018-07-24T08:01:27.019Z,1006.99
2018-07-24T08:02:27.013Z,1006.95
2018-07-24T08:04:20.111Z,1006.96
2018-07-24T08:05:20.079Z,1006.94
2018-07-24T08:07:13.164Z,1006.93
2018-07-24T08:08:13.107Z,1006.94
2018-07-24T08:10:06.380Z,1006.93
2018-07-24T08:11:06.248Z,1006.93
2018-07-24T08:12:59.244Z,1006.93
2018-07-24T08:13:59.233Z,1006.91
2018-07-24T08:15:52.599Z,1006.93
2018-07-24T08:16:52.518Z,1006.96
2018-07-24T08:18:45.532Z,1006.93
2018-07-24T08:19:45.469Z,1006.95
2018-07-24T08:21:38.478Z,1006.98
2018-07-24T08:22:38.432Z,1006.93
2018-07-24T08:24:31.265Z,1006.93
2018-07-24T08:25:31.260Z,1006.93
2018-07-24T08:27:24.263Z,1006.93
2018-07-24T08:28:24.218Z,1006.90
2018-07-24T08:30:17.030Z,1006.85
2018-07-24T08:31:17.009Z,1006.88
2018-07-24T08:33:10.315Z,1006.87
2018-07-24T08:34:10.126Z,1006.87
2018-07-24T08:36:03.149Z,1006.88
2018-07-24T08:37:03.099Z,1006.87
2018-07-24T08:38:56.085Z,1006.82
2018-07-24T08:39:56.067Z,1006.83
2018-07-24T08:41:48.946Z,1006.86
2018-07-24T08:42:48.895Z,1006.85
2018-07-24T08:44:41.875Z,1006.82
2018-07-24T08:45:41.691Z,1006.80
2018-07-24T08:47:34.726Z,1006.77
2018-07-24T08:48:34.686Z,1006.78
2018-07-24T08:50:27.670Z,1006.78
2018-07-24T08:51:27.646Z,1006.80
2018-07-24T08:53:20.957Z,1006.78
2018-07-24T08:54:20.811Z,1006.75
2018-07-24T08:56:13.631Z,1006.75
2018-07-24T08:57:13.656Z,1006.73
2018-07-24T08:59:06.790Z,1006.72
2018-07-24T09:00:06.714Z,1006.73
2018-07-24T09:01:59.685Z,1006.78
2018-07-24T09:02:59.682Z,1006.75
2018-07-24T09:04:52.697Z,1006.77
2018-07-24T09:05:52.628Z,1006.79
2018-07-24T09:07:45.532Z,1006.78
2018-07-24T09:08:45.507Z,1006.77
2018-07-24T09:10:38.532Z,1006.74
2018-07-24T09:11:38.482Z,1006.76
2018-07-24T09:13:31.471Z,1006.76
2018-07-24T09:14:31.437Z,1006.79
2018-07-24T09:16:24.632Z,1006.74
2018-07-24T09:17:24.592Z,1006.76
2018-07-24T09:19:17.618Z,1006.73
2018-07-24T09:20:17.573Z,1006.76
2018-07-24T09:22:10.791Z,1006.76
2018-07-24T09:23:10.706Z,1006.78
2018-07-24T09:25:03.733Z,1006.72
2018-07-24T09:26:03.688Z,1006.76
2018-07-24T09:27:56.723Z,1006.78
2018-07-24T09:28:56.662Z,1006.79
2018-07-24T09:30:49.692Z,1006.78
2018-07-24T09:31:49.659Z,1006.77
2018-07-24T09:33:42.665Z,1006.80
2018-07-24T09:34:42.742Z,1006.81
2018-07-24T09:36:35.889Z,1006.84
2018-07-24T09:37:35.756Z,1006.85
2018-07-24T09:39:28.754Z,1006.82
2018-07-24T09:40:28.739Z,1006.77
2018-07-24T09:42:21.559Z,1006.78
2018-07-24T09:43:21.565Z,1006.79
2018-07-24T09:45:14.734Z,1006.79
2018-07-24T09:46:14.674Z,1006.78
2018-07-24T09:48:07.692Z,1006.76
2018-07-24T09:49:07.649Z,1006.76
2018-07-24T09:51:00.678Z,1006.76
2018-07-24T09:52:00.633Z,1006.77
2018-07-24T09:53:53.634Z,1006.76
2018-07-24T09:54:53.615Z,1006.76
2018-07-24T09:56:46.636Z,1006.69
2018-07-24T09:57:46.587Z,1006.67
2018-07-24T09:59:39.847Z,1006.64
2018-07-24T10:00:39.823Z,1006.76
2018-07-24T10:02:32.855Z,1007.02
2018-07-24T10:03:32.798Z,1007.14
2018-07-24T10:05:26.014Z,1007.27
2018-07-24T10:06:25.923Z,1007.30
2018-07-24T10:08:18.929Z,1007.29
2018-07-24T10:09:18.894Z,1007.31
2018-07-24T10:11:11.908Z,1007.28
2018-07-24T10:12:11.909Z,1007.31
2018-07-24T10:14:04.730Z,1007.32
2018-07-24T10:15:04.693Z,1007.36
2018-07-24T10:16:57.770Z,1007.28
2018-07-24T10:17:57.680Z,1007.27
2018-07-24T10:19:50.714Z,1007.33
2018-07-24T10:20:50.665Z,1007.22
2018-07-24T10:22:43.530Z,1007.26
2018-07-24T10:23:43.513Z,1007.33
2018-07-24T10:25:36.554Z,1007.06
2018-07-24T10:26:36.509Z,1007.14
2018-07-24T10:28:29.533Z,1007.31
2018-07-24T10:29:29.495Z,1007.31
2018-07-24T10:31:22.364Z,1007.04
2018-07-24T10:32:22.331Z,1006.82
2018-07-24T10:34:15.373Z,1006.81
2018-07-24T10:35:15.341Z,1007.00
2018-07-24T10:37:08.391Z,1007.08
2018-07-24T10:38:08.384Z,1007.11
2018-07-24T10:40:01.305Z,1006.97
2018-07-24T10:41:01.285Z,1007.07
2018-07-24T10:42:54.303Z,1006.65
2018-07-24T10:43:54.292Z,1006.83
2018-07-24T10:45:47.334Z,1006.48
2018-07-24T10:46:47.308Z,1006.77
2018-07-24T10:48:40.390Z,1006.79
2018-07-24T10:49:40.344Z,1006.67
2018-07-24T10:51:33.385Z,1006.84
2018-07-24T10:52:33.418Z,1006.82
2018-07-24T10:54:26.577Z,1006.78
2018-07-24T10:55:26.525Z,1006.67
2018-07-24T10:57:19.567Z,1006.87
2018-07-24T10:58:19.606Z,1006.81
2018-07-24T11:00:12.800Z,1006.95
2018-07-24T11:01:12.708Z,1006.67
2018-07-24T11:03:05.728Z,1006.73
2018-07-24T11:04:05.760Z,1006.63
2018-07-24T11:05:59.070Z,1006.88
2018-07-24T11:06:59.039Z,1006.96
2018-07-24T11:08:52.095Z,1006.74
2018-07-24T11:09:52.060Z,1006.49
2018-07-24T11:11:45.212Z,1006.38
2018-07-24T11:12:45.145Z,1006.24
2018-07-24T11:14:38.601Z,1006.31
2018-07-24T11:15:38.165Z,1006.18
2018-07-24T11:17:31.064Z,1006.09
2018-07-24T11:18:31.006Z,1005.99
2018-07-24T11:20:23.865Z,1006.32
2018-07-24T11:21:23.845Z,1006.31
2018-07-24T11:23:16.949Z,1006.13
2018-07-24T11:24:16.887Z,1006.33
2018-07-24T11:26:10.344Z,1006.20
2018-07-24T11:27:10.219Z,1005.89
2018-07-24T11:29:03.257Z,1006.21
2018-07-24T11:30:03.223Z,1006.39
2018-07-24T11:31:56.080Z,1006.50
2018-07-24T11:32:56.115Z,1006.39
2018-07-24T11:34:48.931Z,1006.37
2018-07-24T11:35:48.979Z,1006.35
2018-07-24T11:37:41.920Z,1006.43
2018-07-24T11:38:41.991Z,1006.44
2018-07-24T11:40:35.315Z,1005.66
2018-07-24T11:41:35.245Z,1005.78
2018-07-24T11:43:28.292Z,1006.05
2018-07-24T11:44:28.247Z,1006.31
2018-07-24T11:46:21.290Z,1006.12
2018-07-24T11:47:21.265Z,1005.97
2018-07-24T11:49:14.311Z,1005.85
2018-07-24T11:50:14.275Z,1006.23
2018-07-24T11:52:07.346Z,1006.07
2018-07-24T11:53:07.318Z,1006.39
2018-07-24T11:55:00.493Z,1006.17
2018-07-24T11:56:00.487Z,1005.64
2018-07-24T11:57:53.507Z,1005.52
2018-07-24T11:58:53.476Z,1004.74
2018-07-24T12:00:46.326Z,1004.32
2018-07-24T12:01:46.318Z,1005.80
2018-07-24T12:03:39.310Z,1006.17
2018-07-24T12:04:39.206Z,1006.04
2018-07-24T12:06:32.167Z,1006.28
2018-07-24T12:07:32.165Z,1006.24
2018-07-24T12:09:25.179Z,1006.25
2018-07-24T12:10:25.154Z,1005.61
2018-07-24T12:12:18.018Z,1004.75
2018-07-24T12:13:18.001Z,1005.25
2018-07-24T12:15:10.920Z,1005.65
2018-07-24T12:16:10.832Z,1005.97
2018-07-24T12:18:03.949Z,1005.92
2018-07-24T12:19:03.936Z,1006.01
2018-07-24T12:20:56.904Z,1005.82
2018-07-24T12:21:56.869Z,1005.91
2018-07-24T12:23:49.944Z,1006.05
2018-07-24T12:24:49.879Z,1006.01
2018-07-24T12:26:42.927Z,1005.98
2018-07-24T12:27:42.913Z,1005.63
2018-07-24T12:29:35.977Z,1005.80
2018-07-24T12:30:35.947Z,1006.07
2018-07-24T12:32:28.780Z,1005.78
2018-07-24T12:33:28.767Z,1005.35
2018-07-24T12:35:21.803Z,1004.44
2018-07-24T12:36:21.772Z,1004.23
2018-07-24T12:38:14.733Z,1004.35
2018-07-24T12:39:14.624Z,1004.46
2018-07-24T12:41:07.654Z,1004.68
2018-07-24T12:42:07.700Z,1004.76
2018-07-24T12:44:00.676Z,1005.24
2018-07-24T12:45:00.649Z,1006.06
2018-07-24T12:46:53.690Z,1006.01
2018-07-24T12:47:53.639Z,1006.08
2018-07-24T12:49:46.663Z,1005.89
2018-07-24T12:50:46.648Z,1005.60
2018-07-24T12:52:39.865Z,1005.06
2018-07-24T12:53:39.795Z,1004.74
2018-07-24T12:55:32.828Z,1004.78
2018-07-24T12:56:32.798Z,1005.09
2018-07-24T12:58:25.960Z,1005.78
2018-07-24T12:59:25.929Z,1005.96
2018-07-24T13:01:18.947Z,1005.93
2018-07-24T13:02:18.910Z,1005.65
2018-07-24T13:04:11.994Z,1005.85
2018-07-24T13:05:11.906Z,1005.81
2018-07-24T13:07:04.991Z,1004.76
2018-07-24T13:08:04.946Z,1004.75
2018-07-24T13:09:58.030Z,1004.77
2018-07-24T13:10:58.070Z,1004.78
2018-07-24T13:12:51.196Z,1004.79
2018-07-24T13:13:51.120Z,1005.45
2018-07-24T13:15:44.135Z,1005.67
2018-07-24T13:16:44.211Z,1004.69
2018-07-24T13:18:37.295Z,1004.73
2018-07-24T13:19:37.265Z,1004.66
2018-07-24T13:21:30.105Z,1004.74
2018-07-24T13:22:30.072Z,1004.77
2018-07-24T13:24:23.102Z,1004.79
2018-07-24T13:25:23.077Z,1005.01
2018-07-24T13:27:16.240Z,1005.51
2018-07-24T13:28:16.116Z,1005.66
2018-07-24T13:30:09.373Z,1004.72
2018-07-24T13:31:09.346Z,1004.76
2018-07-24T13:33:02.502Z,1004.80
2018-07-24T13:34:02.465Z,1004.76
2018-07-24T13:35:55.496Z,1004.86
2018-07-24T13:36:55.475Z,1004.82
2018-07-24T13:38:48.701Z,1005.43
2018-07-24T13:39:48.592Z,1005.42
2018-07-24T13:41:41.621Z,1005.19
2018-07-24T13:42:41.588Z,1005.42
2018-07-24T13:44:35.621Z,1005.12
2018-07-24T13:45:35.576Z,1005.03
2018-07-24T13:47:28.591Z,1004.74
2018-07-24T13:48:28.575Z,1004.69
2018-07-24T13:50:21.630Z,1005.31
2018-07-24T13:51:21.618Z,1005.36
2018-07-24T13:53:14.753Z,1005.32
2018-07-24T13:54:14.728Z,1005.40
2018-07-24T13:56:07.747Z,1004.86
2018-07-24T13:57:07.722Z,1004.70
2018-07-24T13:59:01.032Z,1005.28
2018-07-24T14:00:00.949Z,1005.24
2018-07-24T14:01:53.804Z,1005.21
2018-07-24T14:02:53.778Z,1005.21
2018-07-24T14:04:46.806Z,1005.30
2018-07-24T14:05:46.759Z,1005.27
2018-07-24T14:07:39.596Z,1005.38
2018-07-24T14:08:39.592Z,1005.36
2018-07-24T14:10:32.662Z,1005.37
2018-07-24T14:11:32.624Z,1005.36
2018-07-24T14:13:25.631Z,1005.19
2018-07-24T14:14:25.625Z,1005.12
2018-07-24T14:16:18.511Z,1005.08
2018-07-24T14:17:18.482Z,1004.95
2018-07-24T14:19:11.486Z,1005.01
2018-07-24T14:20:11.473Z,1004.98
2018-07-24T14:22:04.543Z,1004.81
2018-07-24T14:23:04.477Z,1004.92
2018-07-24T14:24:57.373Z,1004.94
2018-07-24T14:25:57.354Z,1004.90
2018-07-24T14:27:50.390Z,1004.83
2018-07-24T14:28:50.359Z,1004.89
2018-07-24T14:30:43.394Z,1004.83
2018-07-24T14:31:43.355Z,1004.86
2018-07-24T14:33:36.234Z,1004.87
2018-07-24T14:34:36.215Z,1004.98
2018-07-24T14:36:29.324Z,1004.93
2018-07-24T14:37:29.301Z,1004.87
2018-07-24T14:39:22.558Z,1004.99
2018-07-24T14:40:22.543Z,1005.04
2018-07-24T14:42:15.543Z,1004.94
2018-07-24T14:43:15.505Z,1004.75
2018-07-24T14:45:08.523Z,1004.61
2018-07-24T14:46:08.508Z,1004.70
2018-07-24T14:48:01.558Z,1004.65
2018-07-24T14:49:01.525Z,1004.65
2018-07-24T14:50:54.539Z,1004.91
2018-07-24T14:51:54.571Z,1004.68
2018-07-24T14:53:47.723Z,1004.61
2018-07-24T14:54:47.695Z,1004.51
2018-07-24T14:56:40.725Z,1004.68
2018-07-24T14:57:40.689Z,1004.78
2018-07-24T14:59:33.934Z,1004.81
2018-07-24T15:00:33.836Z,1004.33
2018-07-24T15:02:26.905Z,1004.15
2018-07-24T15:03:26.873Z,1004.54
2018-07-24T15:05:19.901Z,1004.15
2018-07-24T15:06:19.894Z,1004.20
2018-07-24T15:08:12.914Z,1004.56
2018-07-24T15:09:12.899Z,1004.54
2018-07-24T15:11:05.899Z,1004.65
2018-07-24T15:12:05.881Z,1004.65
2018-07-24T15:13:59.284Z,1004.65
2018-07-24T15:14:59.225Z,1004.59
2018-07-24T15:16:52.272Z,1004.57
2018-07-24T15:17:52.237Z,1004.62
2018-07-24T15:19:45.129Z,1004.62
2018-07-24T15:20:45.078Z,1004.57
2018-07-24T15:22:38.130Z,1004.28
2018-07-24T15:23:38.092Z,1004.13
2018-07-24T15:25:31.132Z,1004.61
2018-07-24T15:26:31.082Z,1004.63
2018-07-24T15:28:23.960Z,1004.38
2018-07-24T15:29:23.916Z,1004.49
2018-07-24T15:31:16.917Z,1004.50
2018-07-24T15:32:16.906Z,1004.47
2018-07-24T15:34:09.959Z,1004.60
2018-07-24T15:35:09.907Z,1004.50
2018-07-24T15:37:02.781Z,1004.41
2018-07-24T15:38:02.737Z,1004.51
2018-07-24T15:39:56.128Z,1004.39
2018-07-24T15:40:56.093Z,1004.41
2018-07-24T15:42:48.951Z,1004.39
2018-07-24T15:43:48.921Z,1004.43
2018-07-24T15:45:41.986Z,1004.49
2018-07-24T15:46:42.029Z,1004.52
2018-07-24T15:48:34.947Z,1004.49
2018-07-24T15:49:34.938Z,1004.16
2018-07-24T15:51:27.798Z,1004.29
2018-07-24T15:52:27.751Z,1003.99
2018-07-24T15:54:20.777Z,1004.12
2018-07-24T15:55:20.757Z,1004.28
2018-07-24T15:57:13.623Z,1003.93
2018-07-24T15:58:13.577Z,1003.95
2018-07-24T16:00:06.618Z,1004.03
2018-07-24T16:01:06.572Z,1004.04
2018-07-24T16:02:59.538Z,1004.09
2018-07-24T16:03:59.403Z,1004.13
2018-07-24T16:05:52.436Z,1004.12
2018-07-24T16:06:52.384Z,1004.11
2018-07-24T16:08:45.210Z,1004.15
2018-07-24T16:09:45.194Z,1004.14
2018-07-24T16:11:38.417Z,1004.15
2018-07-24T16:12:38.393Z,1004.16
2018-07-24T16:14:31.416Z,1004.15
2018-07-24T16:15:31.483Z,1004.43
2018-07-24T16:17:24.624Z,1004.43
2018-07-24T16:18:24.573Z,1004.45
2018-07-24T16:20:17.629Z,1004.40
2018-07-24T16:21:17.617Z,1004.41
2018-07-24T16:23:10.415Z,1004.36
2018-07-24T16:24:10.398Z,1004.37
2018-07-24T16:26:03.289Z,1004.35
2018-07-24T16:27:03.248Z,1004.29
2018-07-24T16:28:56.324Z,1004.04
2018-07-24T16:29:56.267Z,1004.19
2018-07-24T16:31:49.334Z,1004.34
2018-07-24T16:32:49.310Z,1004.37
2018-07-24T16:34:42.279Z,1004.40
2018-07-24T16:35:42.133Z,1004.34
2018-07-24T16:37:35.031Z,1004.42
2018-07-24T16:38:34.969Z,1004.32
2018-07-24T16:40:27.998Z,1004.26
2018-07-24T16:41:27.989Z,1004.27
2018-07-24T16:43:21.227Z,1004.20
2018-07-24T16:44:21.124Z,1004.25
2018-07-24T16:46:14.168Z,1004.24
2018-07-24T16:47:14.135Z,1004.24
2018-07-24T16:49:07.366Z,1004.20
2018-07-24T16:50:07.328Z,1004.20
2018-07-24T16:52:00.375Z,1004.22
2018-07-24T16:53:00.342Z,1004.21
2018-07-24T16:54:53.348Z,1004.11
2018-07-24T16:55:53.313Z,1004.11
2018-07-24T16:57:46.377Z,1004.15
2018-07-24T16:58:46.350Z,1004.10
2018-07-24T17:00:39.428Z,1004.08
2018-07-24T17:01:39.388Z,1004.06
2018-07-24T17:03:32.348Z,1004.08
2018-07-24T17:04:32.309Z,1004.05
2018-07-24T17:06:25.390Z,1004.05
2018-07-24T17:07:25.339Z,1004.02
2018-07-24T17:09:18.201Z,1004.07
2018-07-24T17:10:18.144Z,1004.01
2018-07-24T17:12:11.365Z,1004.03
2018-07-24T17:13:11.325Z,1004.02
2018-07-24T17:15:04.390Z,1004.04
2018-07-24T17:16:04.380Z,1004.06
2018-07-24T17:17:57.604Z,1004.02
2018-07-24T17:18:57.579Z,1004.02
2018-07-24T17:20:50.685Z,1004.00
2018-07-24T17:21:50.656Z,1004.02
2018-07-24T17:23:43.855Z,1004.00
2018-07-24T17:24:43.819Z,1003.99
2018-07-24T17:26:36.907Z,1003.98